createdAt,value
2019-01-29T00:00:36.450Z,70.50
2019-01-29T00:01:40.242Z,70.28
2019-01-29T00:02:44.212Z,70.09
2019-01-29T00:03:47.940Z,70.02
2019-01-29T00:04:51.746Z,70.16
2019-01-29T00:05:55.525Z,70.11
2019-01-29T00:06:59.218Z,69.99
2019-01-29T00:08:02.916Z,70.04
2019-01-29T00:09:08.358Z,70.18
2019-01-29T00:10:12.169Z,70.19
2019-01-29T00:11:15.940Z,70.20
2019-01-29T00:12:19.644Z,70.39
2019-01-29T00:13:23.329Z,70.27
2019-01-29T00:14:27.020Z,70.23
2019-01-29T00:15:30.813Z,70.08
2019-01-29T00:16:34.611Z,70.12
2019-01-29T00:17:38.321Z,70.01
2019-01-29T00:18:41.999Z,69.90
2019-01-29T00:19:45.692Z,69.94
2019-01-29T00:20:49.390Z,70.07
2019-01-29T00:21:53.079Z,70.00
2019-01-29T00:22:56.775Z,70.08
2019-01-29T00:24:00.470Z,70.42
2019-01-29T00:25:05.698Z,70.41
2019-01-29T00:26:09.764Z,70.57
2019-01-29T00:27:13.452Z,70.70
2019-01-29T00:28:17.179Z,70.55
2019-01-29T00:29:20.874Z,70.72
2019-01-29T00:30:24.775Z,70.71
2019-01-29T00:31:28.464Z,70.79
2019-01-29T00:32:32.162Z,70.84
2019-01-29T00:33:35.863Z,70.89
2019-01-29T00:34:39.546Z,70.80
2019-01-29T00:35:43.193Z,70.60
2019-01-29T00:36:46.934Z,70.66
2019-01-29T00:37:50.632Z,70.68
2019-01-29T00:38:54.317Z,70.66
2019-01-29T00:39:57.975Z,70.63
2019-01-29T00:41:01.807Z,70.77
2019-01-29T00:42:05.501Z,70.87
2019-01-29T00:43:11.416Z,70.70
2019-01-29T00:44:15.138Z,70.68
2019-01-29T00:45:19.342Z,70.62
2019-01-29T00:46:22.987Z,70.55
2019-01-29T00:47:26.634Z,70.53
2019-01-29T00:48:30.322Z,70.73
2019-01-29T00:49:34.025Z,70.79
2019-01-29T00:50:37.673Z,70.95
2019-01-29T00:51:41.327Z,70.95
2019-01-29T00:52:45.095Z,70.72
2019-01-29T00:53:48.892Z,70.80
2019-01-29T00:54:52.581Z,70.63
2019-01-29T00:55:56.281Z,70.60
2019-01-29T00:56:59.969Z,70.59
2019-01-29T00:58:04.001Z,70.56
2019-01-29T00:59:07.796Z,70.50
2019-01-29T01:00:25.172Z,70.71
2019-01-29T01:01:28.915Z,70.60
2019-01-29T01:02:32.567Z,70.82
2019-01-29T01:03:36.260Z,70.86
2019-01-29T01:04:40.466Z,71.00
2019-01-29T01:05:44.125Z,71.09
2019-01-29T01:06:47.852Z,71.17
2019-01-29T01:07:51.951Z,71.00
2019-01-29T01:08:55.606Z,71.07
2019-01-29T01:09:59.343Z,71.15
2019-01-29T01:11:03.339Z,71.14
2019-01-29T01:12:07.092Z,71.25
2019-01-29T01:13:10.740Z,71.24
2019-01-29T01:14:14.418Z,71.45
2019-01-29T01:15:18.408Z,71.46
2019-01-29T01:16:22.127Z,71.53
2019-01-29T01:17:25.740Z,71.51
2019-01-29T01:18:29.722Z,71.49
2019-01-29T01:19:33.357Z,71.44
2019-01-29T01:20:37.125Z,71.44
2019-01-29T01:21:40.759Z,71.61
2019-01-29T01:22:50.623Z,71.62
2019-01-29T01:23:49.745Z,71.69
2019-01-29T01:24:53.380Z,71.85
2019-01-29T01:25:57.413Z,71.80
2019-01-29T01:27:01.053Z,71.84
2019-01-29T01:28:04.682Z,71.96
2019-01-29T01:29:08.313Z,72.16
2019-01-29T01:30:17.526Z,72.21
2019-01-29T01:31:21.232Z,72.31
2019-01-29T01:32:24.862Z,72.22
2019-01-29T01:33:28.499Z,72.10
2019-01-29T01:34:32.194Z,72.10
2019-01-29T01:35:35.757Z,71.92
2019-01-29T01:36:39.417Z,71.89
2019-01-29T01:37:43.052Z,72.01
2019-01-29T01:38:46.687Z,72.20
2019-01-29T01:39:50.319Z,72.08
2019-01-29T01:40:53.948Z,72.15
2019-01-29T01:41:57.683Z,72.27
2019-01-29T01:43:01.317Z,72.46
2019-01-29T01:44:05.055Z,72.50
2019-01-29T01:45:11.206Z,72.52
2019-01-29T01:46:14.842Z,72.12
2019-01-29T01:47:18.572Z,72.07
2019-01-29T01:48:22.209Z,72.22
2019-01-29T01:49:25.911Z,72.18
2019-01-29T01:50:29.541Z,71.95
2019-01-29T01:51:33.175Z,71.88
2019-01-29T01:52:36.847Z,72.15
2019-01-29T01:53:40.480Z,72.49
2019-01-29T01:54:44.114Z,72.62
2019-01-29T01:55:47.748Z,72.68
2019-01-29T01:56:51.376Z,73.22
2019-01-29T01:57:55.048Z,73.27
2019-01-29T01:58:58.681Z,73.23
2019-01-29T02:00:02.324Z,73.28
2019-01-29T02:01:06.118Z,73.22
2019-01-29T02:02:09.822Z,73.14
2019-01-29T02:03:13.489Z,72.98
2019-01-29T02:04:17.122Z,73.00
2019-01-29T02:05:21.127Z,73.06
2019-01-29T02:06:24.827Z,73.33
2019-01-29T02:07:28.467Z,73.37
2019-01-29T02:08:32.314Z,73.58
2019-01-29T02:09:35.983Z,73.71
2019-01-29T02:10:39.683Z,73.64
2019-01-29T02:11:43.316Z,73.45
2019-01-29T02:12:46.944Z,73.27
2019-01-29T02:13:50.614Z,73.14
2019-01-29T02:14:54.308Z,72.91
2019-01-29T02:15:57.950Z,72.70
2019-01-29T02:17:01.579Z,72.62
2019-01-29T02:18:05.275Z,72.84
2019-01-29T02:19:08.934Z,73.09
2019-01-29T02:20:14.908Z,73.46
2019-01-29T02:21:18.544Z,73.72
2019-01-29T02:22:22.183Z,74.17
2019-01-29T02:23:25.821Z,74.03
2019-01-29T02:24:29.483Z,74.12
2019-01-29T02:25:33.487Z,74.09
2019-01-29T02:26:37.196Z,73.88
2019-01-29T02:27:40.881Z,73.71
2019-01-29T02:28:44.525Z,73.57
2019-01-29T02:29:48.528Z,73.84
2019-01-29T02:30:52.170Z,73.60
2019-01-29T02:31:55.806Z,73.82
2019-01-29T02:32:59.816Z,74.15
2019-01-29T02:34:03.451Z,74.48
2019-01-29T02:35:07.524Z,74.27
2019-01-29T02:36:11.159Z,74.04
2019-01-29T02:37:14.792Z,73.88
2019-01-29T02:38:18.434Z,73.70
2019-01-29T02:39:22.069Z,73.68
2019-01-29T02:40:28.665Z,74.31
2019-01-29T02:41:32.409Z,74.56
2019-01-29T02:42:36.123Z,74.49
2019-01-29T02:43:39.756Z,74.87
2019-01-29T02:44:43.395Z,74.87
2019-01-29T02:45:47.078Z,74.88
2019-01-29T02:46:50.695Z,75.00
2019-01-29T02:47:54.334Z,74.79
2019-01-29T02:48:57.975Z,74.36
2019-01-29T02:50:01.589Z,74.17
2019-01-29T02:51:05.361Z,74.02
2019-01-29T02:52:08.994Z,74.04
2019-01-29T02:53:18.021Z,73.88
2019-01-29T02:54:17.978Z,73.41
2019-01-29T02:55:21.619Z,73.50
2019-01-29T02:56:25.284Z,73.73
2019-01-29T02:57:29.002Z,73.89
2019-01-29T02:58:32.636Z,74.00
2019-01-29T02:59:36.316Z,74.13
2019-01-29T03:00:39.953Z,74.33
2019-01-29T03:01:44.035Z,74.56
2019-01-29T03:02:47.866Z,74.57
2019-01-29T03:03:51.510Z,74.50
2019-01-29T03:04:55.136Z,74.32
2019-01-29T03:05:58.773Z,74.29
2019-01-29T03:07:02.448Z,74.37
2019-01-29T03:08:06.281Z,74.02
2019-01-29T03:09:09.911Z,74.37
2019-01-29T03:10:16.612Z,75.04
2019-01-29T03:11:20.241Z,75.31
2019-01-29T03:12:23.917Z,75.49
2019-01-29T03:13:28.017Z,75.89
2019-01-29T03:14:31.654Z,76.18
2019-01-29T03:15:35.504Z,76.07
2019-01-29T03:16:39.130Z,75.97
2019-01-29T03:17:42.804Z,75.78
2019-01-29T03:18:46.442Z,75.61
2019-01-29T03:19:50.072Z,75.45
2019-01-29T03:20:53.696Z,75.12
2019-01-29T03:21:57.325Z,74.96
2019-01-29T03:23:01.423Z,75.06
2019-01-29T03:24:05.355Z,74.76
2019-01-29T03:25:11.396Z,74.25
2019-01-29T03:26:15.105Z,74.02
2019-01-29T03:27:18.798Z,73.78
2019-01-29T03:28:22.483Z,73.22
2019-01-29T03:29:26.407Z,72.85
2019-01-29T03:30:30.032Z,72.63
2019-01-29T03:31:33.703Z,72.51
2019-01-29T03:32:37.313Z,72.36
2019-01-29T03:33:40.971Z,72.41
2019-01-29T03:34:44.604Z,72.54
2019-01-29T03:35:48.231Z,72.76
2019-01-29T03:36:52.151Z,72.67
2019-01-29T03:37:55.785Z,72.57
2019-01-29T03:38:59.451Z,72.57
2019-01-29T03:40:03.081Z,72.41
2019-01-29T03:41:06.721Z,72.26
2019-01-29T03:42:10.356Z,72.27
2019-01-29T03:43:13.992Z,72.27
2019-01-29T03:44:17.630Z,72.31
2019-01-29T03:45:21.532Z,72.65
2019-01-29T03:46:25.267Z,72.99
2019-01-29T03:47:28.899Z,73.40
2019-01-29T03:48:32.602Z,73.52
2019-01-29T03:49:36.591Z,73.37
2019-01-29T03:50:40.581Z,73.39
2019-01-29T03:51:44.208Z,73.31
2019-01-29T03:52:47.838Z,73.01
2019-01-29T03:53:51.469Z,72.98
2019-01-29T03:54:55.110Z,72.83
2019-01-29T03:55:58.757Z,72.79
2019-01-29T03:57:02.382Z,72.96
2019-01-29T03:58:06.086Z,73.25
2019-01-29T03:59:09.735Z,73.16
2019-01-29T04:00:22.295Z,73.16
2019-01-29T04:01:26.346Z,73.48
2019-01-29T04:02:30.316Z,73.35
2019-01-29T04:03:34.347Z,73.23
2019-01-29T04:04:37.970Z,73.08
2019-01-29T04:05:41.641Z,72.51
2019-01-29T04:06:45.267Z,72.64
2019-01-29T04:07:48.906Z,72.65
2019-01-29T04:08:52.534Z,72.34
2019-01-29T04:09:56.167Z,72.66
2019-01-29T04:10:59.839Z,72.93
2019-01-29T04:12:03.469Z,73.12
2019-01-29T04:13:07.106Z,73.10
2019-01-29T04:14:11.044Z,72.94
2019-01-29T04:15:16.666Z,72.72
2019-01-29T04:16:20.333Z,72.58
2019-01-29T04:17:23.971Z,72.51
2019-01-29T04:18:27.602Z,71.97
2019-01-29T04:19:31.234Z,72.37
2019-01-29T04:20:34.873Z,72.22
2019-01-29T04:21:38.540Z,72.28
2019-01-29T04:22:42.163Z,72.68
2019-01-29T04:23:47.779Z,72.84
2019-01-29T04:24:51.149Z,72.79
2019-01-29T04:25:54.778Z,72.66
2019-01-29T04:26:58.374Z,72.70
2019-01-29T04:28:02.066Z,72.70
2019-01-29T04:29:05.702Z,72.81
2019-01-29T04:30:15.194Z,72.67
2019-01-29T04:31:18.835Z,72.53
2019-01-29T04:32:22.506Z,72.43
2019-01-29T04:33:26.128Z,72.76
2019-01-29T04:34:29.756Z,72.75
2019-01-29T04:35:33.393Z,72.81
2019-01-29T04:36:37.018Z,73.11
2019-01-29T04:37:40.689Z,73.08
2019-01-29T04:38:44.323Z,72.98
2019-01-29T04:39:47.915Z,72.77
2019-01-29T04:40:51.545Z,73.13
2019-01-29T04:41:55.561Z,73.25
2019-01-29T04:42:59.233Z,73.03
2019-01-29T04:44:02.874Z,72.67
2019-01-29T04:45:09.176Z,72.96
2019-01-29T04:46:12.811Z,73.08
2019-01-29T04:47:16.441Z,73.32
2019-01-29T04:48:20.113Z,73.40
2019-01-29T04:49:23.763Z,73.46
2019-01-29T04:50:27.384Z,73.37
2019-01-29T04:51:31.038Z,73.30
2019-01-29T04:52:34.690Z,73.78
2019-01-29T04:53:38.369Z,73.73
2019-01-29T04:54:42.086Z,73.29
2019-01-29T04:55:45.715Z,73.53
2019-01-29T04:56:49.349Z,74.57
2019-01-29T04:57:52.993Z,76.11
2019-01-29T04:58:56.686Z,76.68
2019-01-29T05:00:00.314Z,76.44
2019-01-29T05:01:04.159Z,75.40
2019-01-29T05:02:08.089Z,74.86
2019-01-29T05:03:11.793Z,74.23
2019-01-29T05:04:15.462Z,73.84
2019-01-29T05:05:19.898Z,73.65
2019-01-29T05:06:23.597Z,73.73
2019-01-29T05:07:27.251Z,73.71
2019-01-29T05:08:30.882Z,73.24
2019-01-29T05:09:34.531Z,73.21
2019-01-29T05:10:38.160Z,73.68
2019-01-29T05:11:41.795Z,73.86
2019-01-29T05:12:45.426Z,73.88
2019-01-29T05:13:49.063Z,73.70
2019-01-29T05:14:52.731Z,73.64
2019-01-29T05:15:56.468Z,73.21
2019-01-29T05:17:00.177Z,73.21
2019-01-29T05:18:03.826Z,73.18
2019-01-29T05:19:07.463Z,74.87
2019-01-29T05:20:13.657Z,73.39
2019-01-29T05:21:17.382Z,73.93
2019-01-29T05:22:21.008Z,75.45
2019-01-29T05:23:24.648Z,75.24
2019-01-29T05:24:28.285Z,75.65
2019-01-29T05:25:31.930Z,74.04
2019-01-29T05:26:35.575Z,73.01
2019-01-29T05:27:39.201Z,72.44
2019-01-29T05:28:42.853Z,72.07
2019-01-29T05:29:46.516Z,71.84
2019-01-29T05:30:50.191Z,71.57
2019-01-29T05:31:54.198Z,73.15
2019-01-29T05:32:57.833Z,72.27
2019-01-29T05:34:01.472Z,71.48
2019-01-29T05:35:07.963Z,71.72
2019-01-29T05:36:11.628Z,71.66
2019-01-29T05:37:15.264Z,71.51
2019-01-29T05:38:18.898Z,72.34
2019-01-29T05:39:22.536Z,72.62
2019-01-29T05:40:26.174Z,72.54
2019-01-29T05:41:29.866Z,71.62
2019-01-29T05:42:33.508Z,71.63
2019-01-29T05:43:37.148Z,71.58
2019-01-29T05:44:40.881Z,71.50
2019-01-29T05:45:44.522Z,72.28
2019-01-29T05:46:48.175Z,73.41
2019-01-29T05:47:51.895Z,74.16
2019-01-29T05:48:55.533Z,74.39
2019-01-29T05:49:59.169Z,74.44
2019-01-29T05:51:02.809Z,74.22
2019-01-29T05:52:06.467Z,73.95
2019-01-29T05:53:10.102Z,73.93
2019-01-29T05:54:16.482Z,74.19
2019-01-29T05:55:19.037Z,74.55
2019-01-29T05:56:22.993Z,74.93
2019-01-29T05:57:26.676Z,75.10
2019-01-29T05:58:30.312Z,75.52
2019-01-29T05:59:33.943Z,75.90
2019-01-29T06:00:39.452Z,76.32
2019-01-29T06:01:43.086Z,77.00
2019-01-29T06:02:48.527Z,77.16
2019-01-29T06:03:52.463Z,77.15
2019-01-29T06:04:56.105Z,77.17
2019-01-29T06:05:59.752Z,77.04
2019-01-29T06:07:03.393Z,77.26
2019-01-29T06:08:07.063Z,77.20
2019-01-29T06:09:10.696Z,77.12
2019-01-29T06:10:16.742Z,77.06
2019-01-29T06:11:20.478Z,77.76
2019-01-29T06:12:24.415Z,78.20
2019-01-29T06:13:28.204Z,78.97
2019-01-29T06:14:31.847Z,79.61
2019-01-29T06:15:35.559Z,79.91
2019-01-29T06:16:39.207Z,79.83
2019-01-29T06:17:42.849Z,79.70
2019-01-29T06:18:46.522Z,79.70
2019-01-29T06:19:50.158Z,80.06
2019-01-29T06:20:53.792Z,80.15
2019-01-29T06:21:57.429Z,80.23
2019-01-29T06:23:01.069Z,80.18
2019-01-29T06:24:04.742Z,80.22
2019-01-29T06:25:08.450Z,80.25
2019-01-29T06:26:12.160Z,80.19
2019-01-29T06:27:15.924Z,80.35
2019-01-29T06:28:19.555Z,80.28
2019-01-29T06:29:23.707Z,80.66
2019-01-29T06:30:27.643Z,80.54
2019-01-29T06:31:31.273Z,80.28
2019-01-29T06:32:34.913Z,80.20
2019-01-29T06:33:38.551Z,80.25
2019-01-29T06:34:42.607Z,79.56
2019-01-29T06:35:46.237Z,79.02
2019-01-29T06:36:50.995Z,78.94
2019-01-29T06:37:54.686Z,78.89
2019-01-29T06:38:59.846Z,79.04
2019-01-29T06:40:04.297Z,79.16
2019-01-29T06:41:07.970Z,79.33
2019-01-29T06:42:11.893Z,78.95
2019-01-29T06:43:15.586Z,78.87
2019-01-29T06:44:19.279Z,78.68
2019-01-29T06:45:24.769Z,78.76
2019-01-29T06:46:28.406Z,78.76
2019-01-29T06:47:32.111Z,78.89
2019-01-29T06:48:36.017Z,79.14
2019-01-29T06:49:39.707Z,79.19
2019-01-29T06:50:43.349Z,79.27
2019-01-29T06:51:46.982Z,79.37
2019-01-29T06:52:50.840Z,79.33
2019-01-29T06:53:54.477Z,79.60
2019-01-29T06:54:59.892Z,81.50
2019-01-29T06:56:03.531Z,80.93
2019-01-29T06:57:07.200Z,80.81
2019-01-29T06:58:10.839Z,80.98
2019-01-29T06:59:14.474Z,81.07
2019-01-29T07:00:24.087Z,81.29
2019-01-29T07:01:27.724Z,81.41
2019-01-29T07:02:31.472Z,81.04
2019-01-29T07:03:35.115Z,80.68
2019-01-29T07:04:38.747Z,80.43
2019-01-29T07:05:42.815Z,80.37
2019-01-29T07:06:46.451Z,80.32
2019-01-29T07:07:50.091Z,80.49
2019-01-29T07:08:53.736Z,80.44
2019-01-29T07:09:57.373Z,80.21
2019-01-29T07:11:01.021Z,80.26
2019-01-29T07:12:04.671Z,80.62
2019-01-29T07:13:08.326Z,80.62
2019-01-29T07:14:11.961Z,80.56
2019-01-29T07:15:39.498Z,80.60
2019-01-29T07:16:44.794Z,80.54
2019-01-29T07:17:49.655Z,80.69
2019-01-29T07:18:57.647Z,80.74
2019-01-29T07:20:01.284Z,80.74
2019-01-29T07:21:07.271Z,80.92
2019-01-29T07:22:12.145Z,81.22
2019-01-29T07:23:15.828Z,81.43
2019-01-29T07:24:19.464Z,81.62
2019-01-29T07:25:23.104Z,81.80
2019-01-29T07:26:26.926Z,81.62
2019-01-29T07:27:30.607Z,82.14
2019-01-29T07:28:34.713Z,83.82
2019-01-29T07:29:38.351Z,83.25
2019-01-29T07:30:42.066Z,82.57
2019-01-29T07:31:45.734Z,82.46
2019-01-29T07:32:49.372Z,82.56
2019-01-29T07:33:53.014Z,82.79
2019-01-29T07:34:56.640Z,83.11
2019-01-29T07:36:00.268Z,82.94
2019-01-29T07:37:03.946Z,82.79
2019-01-29T07:38:07.585Z,83.00
2019-01-29T07:39:11.222Z,82.88
2019-01-29T07:40:15.008Z,83.28
2019-01-29T07:41:18.672Z,83.54
2019-01-29T07:42:22.353Z,83.44
2019-01-29T07:43:25.982Z,83.45
2019-01-29T07:44:29.622Z,83.36
2019-01-29T07:45:33.320Z,83.28
2019-01-29T07:46:36.964Z,83.67
2019-01-29T07:47:40.649Z,83.35
2019-01-29T07:48:44.281Z,83.28
2019-01-29T07:49:49.795Z,83.66
2019-01-29T07:50:53.498Z,83.87
2019-01-29T07:51:57.502Z,84.36
2019-01-29T07:53:01.267Z,84.42
2019-01-29T07:54:05.301Z,84.30
2019-01-29T07:55:10.442Z,84.04
2019-01-29T07:56:14.078Z,83.84
2019-01-29T07:57:17.716Z,83.82
2019-01-29T07:58:21.376Z,83.80
2019-01-29T07:59:32.668Z,83.62
2019-01-29T08:00:30.371Z,83.60
2019-01-29T08:01:34.392Z,83.84
2019-01-29T08:02:38.038Z,83.78
2019-01-29T08:03:41.703Z,83.65
2019-01-29T08:04:45.344Z,83.51
2019-01-29T08:05:48.978Z,83.64
2019-01-29T08:06:52.616Z,83.52
2019-01-29T08:07:56.264Z,83.49
2019-01-29T08:08:59.928Z,83.27
2019-01-29T08:10:03.832Z,83.09
2019-01-29T08:11:07.470Z,83.00
2019-01-29T08:12:11.293Z,82.92
2019-01-29T08:13:15.034Z,83.32
2019-01-29T08:14:20.555Z,83.31
2019-01-29T08:15:24.462Z,83.24
2019-01-29T08:16:28.092Z,83.25
2019-01-29T08:17:31.801Z,83.48
2019-01-29T08:18:35.526Z,83.90
2019-01-29T08:19:39.257Z,84.02
2019-01-29T08:20:42.890Z,84.24
2019-01-29T08:21:46.536Z,84.04
2019-01-29T08:22:50.176Z,84.42
2019-01-29T08:23:53.822Z,84.49
2019-01-29T08:25:01.877Z,84.36
2019-01-29T08:26:02.849Z,83.95
2019-01-29T08:27:08.584Z,83.75
2019-01-29T08:28:12.019Z,83.72
2019-01-29T08:29:16.048Z,83.63
2019-01-29T08:30:20.229Z,83.63
2019-01-29T08:31:23.980Z,83.47
2019-01-29T08:32:27.638Z,83.35
2019-01-29T08:33:31.279Z,83.13
2019-01-29T08:34:34.995Z,83.13
2019-01-29T08:35:38.770Z,82.93
2019-01-29T08:36:42.407Z,83.07
2019-01-29T08:37:46.168Z,83.38
2019-01-29T08:38:49.773Z,84.01
2019-01-29T08:39:53.419Z,84.69
2019-01-29T08:40:57.076Z,85.39
2019-01-29T08:42:00.808Z,85.50
2019-01-29T08:43:04.439Z,85.22
2019-01-29T08:44:08.074Z,84.93
2019-01-29T08:45:14.394Z,84.63
2019-01-29T08:46:18.080Z,84.18
2019-01-29T08:47:21.732Z,84.24
2019-01-29T08:48:25.729Z,84.55
2019-01-29T08:49:29.424Z,84.28
2019-01-29T08:50:33.065Z,84.65
2019-01-29T08:51:36.734Z,84.17
2019-01-29T08:52:40.398Z,83.99
2019-01-29T08:53:44.034Z,83.75
2019-01-29T08:54:47.667Z,83.85
2019-01-29T08:55:51.399Z,83.93
2019-01-29T08:56:55.043Z,83.78
2019-01-29T08:57:58.679Z,83.54
2019-01-29T08:59:02.315Z,83.58
2019-01-29T09:00:09.258Z,84.34
2019-01-29T09:01:12.900Z,84.21
2019-01-29T09:02:16.641Z,84.26
2019-01-29T09:03:20.447Z,84.34
2019-01-29T09:04:24.104Z,84.35
2019-01-29T09:05:27.741Z,84.00
2019-01-29T09:06:31.374Z,83.69
2019-01-29T09:07:35.058Z,83.64
2019-01-29T09:08:38.689Z,83.28
2019-01-29T09:09:42.330Z,82.99
2019-01-29T09:10:46.062Z,82.95
2019-01-29T09:11:49.697Z,82.90
2019-01-29T09:12:54.391Z,83.41
2019-01-29T09:13:58.026Z,83.63
2019-01-29T09:15:01.746Z,83.46
2019-01-29T09:16:05.478Z,82.19
2019-01-29T09:17:09.138Z,82.10
2019-01-29T09:18:12.884Z,81.88
2019-01-29T09:19:16.515Z,80.73
2019-01-29T09:20:21.825Z,80.65
2019-01-29T09:21:25.461Z,80.80
2019-01-29T09:22:29.167Z,80.83
2019-01-29T09:23:32.838Z,79.73
2019-01-29T09:24:36.470Z,79.94
2019-01-29T09:25:40.136Z,79.91
2019-01-29T09:26:43.785Z,79.82
2019-01-29T09:27:50.789Z,80.48
2019-01-29T09:28:54.418Z,79.35
2019-01-29T09:29:58.055Z,78.63
2019-01-29T09:31:02.161Z,78.00
2019-01-29T09:32:05.841Z,76.18
2019-01-29T09:33:09.565Z,75.95
2019-01-29T09:34:13.202Z,75.93
2019-01-29T09:35:16.912Z,76.75
2019-01-29T09:36:20.551Z,76.05
2019-01-29T09:37:24.236Z,76.49
2019-01-29T09:38:27.870Z,76.36
2019-01-29T09:39:31.542Z,75.05
2019-01-29T09:40:35.196Z,75.23
2019-01-29T09:41:38.836Z,75.54
2019-01-29T09:42:42.601Z,75.37
2019-01-29T09:43:46.250Z,75.91
2019-01-29T09:44:49.931Z,76.33
2019-01-29T09:45:53.652Z,75.96
2019-01-29T09:46:57.287Z,75.60
2019-01-29T09:48:01.028Z,75.58
2019-01-29T09:49:04.776Z,75.08
2019-01-29T09:50:11.520Z,74.88
2019-01-29T09:51:15.262Z,75.64
2019-01-29T09:52:18.928Z,75.88
2019-01-29T09:53:22.740Z,76.53
2019-01-29T09:54:26.380Z,76.58
2019-01-29T09:55:30.197Z,76.87
2019-01-29T09:56:33.871Z,77.28
2019-01-29T09:57:38.986Z,77.65
2019-01-29T09:58:42.658Z,77.73
2019-01-29T09:59:46.297Z,78.06
2019-01-29T10:00:50.818Z,78.43
2019-01-29T10:01:54.477Z,77.74
2019-01-29T10:02:58.267Z,78.17
2019-01-29T10:04:01.974Z,76.85
2019-01-29T10:05:08.330Z,77.17
2019-01-29T10:06:12.058Z,77.05
2019-01-29T10:07:15.680Z,77.42
2019-01-29T10:08:19.317Z,77.67
2019-01-29T10:09:23.063Z,76.83
2019-01-29T10:10:26.861Z,76.19
2019-01-29T10:11:30.724Z,76.94
2019-01-29T10:12:35.642Z,77.37
2019-01-29T10:13:41.931Z,76.76
2019-01-29T10:14:46.228Z,76.80
2019-01-29T10:15:49.951Z,77.09
2019-01-29T10:16:53.767Z,76.07
2019-01-29T10:17:58.944Z,76.72
2019-01-29T10:19:02.608Z,76.96
2019-01-29T10:20:07.530Z,76.11
2019-01-29T10:21:11.232Z,76.89
2019-01-29T10:22:15.062Z,77.09
2019-01-29T10:23:18.767Z,76.79
2019-01-29T10:24:22.668Z,77.13
2019-01-29T10:25:26.812Z,76.64
2019-01-29T10:26:30.550Z,76.85
2019-01-29T10:27:34.271Z,77.18
2019-01-29T10:28:38.003Z,76.31
2019-01-29T10:29:41.701Z,75.92
2019-01-29T10:30:45.470Z,76.98
2019-01-29T10:31:49.195Z,76.55
2019-01-29T10:32:53.569Z,76.18
2019-01-29T10:33:59.951Z,76.70
2019-01-29T10:35:07.131Z,77.44
2019-01-29T10:36:10.838Z,77.23
2019-01-29T10:37:14.594Z,76.74
2019-01-29T10:38:18.246Z,77.08
2019-01-29T10:39:21.961Z,76.73
2019-01-29T10:40:27.228Z,76.63
2019-01-29T10:41:30.962Z,76.26
2019-01-29T10:42:34.598Z,76.00
2019-01-29T10:43:38.233Z,76.12
2019-01-29T10:44:41.917Z,76.58
2019-01-29T10:45:45.632Z,76.22
2019-01-29T10:46:49.595Z,76.33
2019-01-29T10:47:53.232Z,76.89
2019-01-29T10:48:56.870Z,75.95
2019-01-29T10:50:00.585Z,75.89
2019-01-29T10:51:04.363Z,76.16
2019-01-29T10:52:08.100Z,76.05
2019-01-29T10:53:11.744Z,75.99
2019-01-29T10:54:15.372Z,76.78
2019-01-29T10:55:19.526Z,76.69
2019-01-29T10:56:23.162Z,76.96
2019-01-29T10:57:26.798Z,76.90
2019-01-29T10:58:30.436Z,76.97
2019-01-29T10:59:34.087Z,76.07
2019-01-29T11:00:40.330Z,75.32
2019-01-29T11:01:44.023Z,75.42
2019-01-29T11:02:47.995Z,75.29
2019-01-29T11:03:51.634Z,75.27
2019-01-29T11:04:55.559Z,75.88
2019-01-29T11:05:59.255Z,76.39
2019-01-29T11:07:03.317Z,76.92
2019-01-29T11:08:06.977Z,76.92
2019-01-29T11:09:11.737Z,77.47
2019-01-29T11:10:17.521Z,77.73
2019-01-29T11:11:21.154Z,78.05
2019-01-29T11:12:24.808Z,78.32
2019-01-29T11:13:28.471Z,78.43
2019-01-29T11:14:32.112Z,78.67
2019-01-29T11:15:38.059Z,78.82
2019-01-29T11:16:42.689Z,78.10
2019-01-29T11:17:46.336Z,78.77
2019-01-29T11:18:50.031Z,78.02
2019-01-29T11:19:53.665Z,78.89
2019-01-29T11:20:57.383Z,79.32
2019-01-29T11:22:01.025Z,79.70
2019-01-29T11:23:05.264Z,80.01
2019-01-29T11:24:08.914Z,80.23
2019-01-29T11:25:23.798Z,80.27
2019-01-29T11:26:27.437Z,80.24
2019-01-29T11:27:31.142Z,80.20
2019-01-29T11:28:34.884Z,80.21
2019-01-29T11:29:38.733Z,79.89
2019-01-29T11:30:42.474Z,79.87
2019-01-29T11:31:46.186Z,79.91
2019-01-29T11:32:49.863Z,80.32
2019-01-29T11:33:53.502Z,80.37
2019-01-29T11:34:57.212Z,80.43
2019-01-29T11:36:00.882Z,80.86
2019-01-29T11:37:05.019Z,80.50
2019-01-29T11:38:08.702Z,80.54
2019-01-29T11:39:12.443Z,80.75
2019-01-29T11:40:24.644Z,80.74
2019-01-29T11:41:28.345Z,79.75
2019-01-29T11:42:31.985Z,80.12
2019-01-29T11:43:35.657Z,80.17
2019-01-29T11:44:39.366Z,80.22
2019-01-29T11:45:46.003Z,80.12
2019-01-29T11:46:49.631Z,79.90
2019-01-29T11:47:53.269Z,79.99
2019-01-29T11:48:56.958Z,80.58
2019-01-29T11:50:00.942Z,80.48
2019-01-29T11:51:04.773Z,80.57
2019-01-29T11:52:08.484Z,80.97
2019-01-29T11:53:12.118Z,81.45
2019-01-29T11:54:15.788Z,81.32
2019-01-29T11:55:19.517Z,81.10
2019-01-29T11:56:23.151Z,81.28
2019-01-29T11:57:26.792Z,81.01
2019-01-29T11:58:30.439Z,80.53
2019-01-29T11:59:34.124Z,80.69
2019-01-29T12:00:40.201Z,80.93
2019-01-29T12:01:43.839Z,80.60
2019-01-29T12:02:47.478Z,80.97
2019-01-29T12:03:51.115Z,80.85
2019-01-29T12:04:54.791Z,80.25
2019-01-29T12:05:58.423Z,80.23
2019-01-29T12:07:02.129Z,81.08
2019-01-29T12:08:07.074Z,81.57
2019-01-29T12:09:10.914Z,81.43
2019-01-29T12:10:15.446Z,81.43
2019-01-29T12:11:19.156Z,81.80
2019-01-29T12:12:23.174Z,81.52
2019-01-29T12:13:26.813Z,81.25
2019-01-29T12:14:30.454Z,80.94
2019-01-29T12:15:34.123Z,80.51
2019-01-29T12:16:37.762Z,80.56
2019-01-29T12:17:41.400Z,80.47
2019-01-29T12:18:45.050Z,80.05
2019-01-29T12:19:48.766Z,79.52
2019-01-29T12:20:52.441Z,79.30
2019-01-29T12:21:56.081Z,79.12
2019-01-29T12:22:59.733Z,78.03
2019-01-29T12:24:03.364Z,76.95
2019-01-29T12:25:07.804Z,77.53
2019-01-29T12:26:13.324Z,77.78
2019-01-29T12:27:17.814Z,77.02
2019-01-29T12:28:21.683Z,77.36
2019-01-29T12:29:25.401Z,76.99
2019-01-29T12:30:30.342Z,76.76
2019-01-29T12:31:34.090Z,76.84
2019-01-29T12:32:37.804Z,76.88
2019-01-29T12:33:41.492Z,76.73
2019-01-29T12:34:45.218Z,77.19
2019-01-29T12:35:48.853Z,78.18
2019-01-29T12:36:52.530Z,78.18
2019-01-29T12:37:56.525Z,78.20
2019-01-29T12:39:00.164Z,78.09
2019-01-29T12:40:05.342Z,78.81
2019-01-29T12:41:08.974Z,78.81
2019-01-29T12:42:12.653Z,78.47
2019-01-29T12:43:16.385Z,78.82
2019-01-29T12:44:20.032Z,78.68
2019-01-29T12:45:24.576Z,78.84
2019-01-29T12:46:28.288Z,79.22
2019-01-29T12:47:32.056Z,79.29
2019-01-29T12:48:35.700Z,79.52
2019-01-29T12:49:39.433Z,79.35
2019-01-29T12:50:44.696Z,78.96
2019-01-29T12:51:50.004Z,78.82
2019-01-29T12:52:55.319Z,78.74
2019-01-29T12:53:59.296Z,78.74
2019-01-29T12:55:02.938Z,78.85
2019-01-29T12:56:06.573Z,78.96
2019-01-29T12:57:10.732Z,79.36
2019-01-29T12:58:14.422Z,78.54
2019-01-29T12:59:18.066Z,78.54
2019-01-29T13:00:23.384Z,79.08
2019-01-29T13:01:27.031Z,79.66
2019-01-29T13:02:30.683Z,80.11
2019-01-29T13:03:34.366Z,80.14
2019-01-29T13:04:38.045Z,80.44
2019-01-29T13:05:41.690Z,80.33
2019-01-29T13:06:45.372Z,80.12
2019-01-29T13:07:49.202Z,79.81
2019-01-29T13:08:53.252Z,79.39
2019-01-29T13:09:56.899Z,79.06
2019-01-29T13:11:00.632Z,79.40
2019-01-29T13:12:05.082Z,79.31
2019-01-29T13:13:09.017Z,79.60
2019-01-29T13:14:12.780Z,79.70
2019-01-29T13:15:29.634Z,79.41
2019-01-29T13:16:34.258Z,79.37
2019-01-29T13:17:38.008Z,79.55
2019-01-29T13:18:41.697Z,79.69
2019-01-29T13:19:45.339Z,79.27
2019-01-29T13:20:48.975Z,79.89
2019-01-29T13:21:52.605Z,79.77
2019-01-29T13:22:56.284Z,80.19
2019-01-29T13:23:59.926Z,80.27
2019-01-29T13:25:03.661Z,80.01
2019-01-29T13:26:07.336Z,79.91
2019-01-29T13:27:10.973Z,79.55
2019-01-29T13:28:14.665Z,79.23
2019-01-29T13:29:18.506Z,78.98
2019-01-29T13:30:27.980Z,79.00
2019-01-29T13:31:31.689Z,79.24
2019-01-29T13:32:35.399Z,79.16
2019-01-29T13:33:39.064Z,79.26
2019-01-29T13:34:42.738Z,79.41
2019-01-29T13:35:48.266Z,79.52
2019-01-29T13:36:52.561Z,79.62
2019-01-29T13:37:56.276Z,80.13
2019-01-29T13:38:59.928Z,80.23
2019-01-29T13:40:05.099Z,80.23
2019-01-29T13:41:08.733Z,80.38
2019-01-29T13:42:13.304Z,80.41
2019-01-29T13:43:17.020Z,79.97
2019-01-29T13:44:20.677Z,79.97